PWSweather.com
Personal Weather Stations
Station Observations
SHAHALMS1
Eftra, Falkenberg, HA

EftraFalkenberg, HA

Lat: 56.85, Lon: 12.65

Elevation: 140

Station Type:

http://hem.passagen.se/risarp101

High Low Average
Temperature 66.2°F19.0°C 50.0°F10.0°C 59.4°F15.2°C
Dew Point 53.1°F11.7°C 44.6°F7.0°C 48.9°F9.4°C
Winds 6.3 mph 10.1 kmh Calm Calm 3.0 mph SW4.8 kmh SW
Wind Gusts 16.5 mph26.6 kmh -- 8.0 mph12.9 kmh
Humidity 82% 57% 69%
Pressure 30.21 in1023.0 mb 30.04 in1017.3 mb -
Precipitation 0.00 in0.0 mm - -
Hour Temp Dew Point Humidity Winds Wind Gusts Pressure Precip Precip Rate Daily Precip Total
12:00 AM 56.1°F13.4°C 47.6°F8.7°C 73% 2.7 mph WNW4.3 kmh WNW 6.1 mph9.8 kmh 30.04 in1017.3 mb 0.00 in0.0 mm 0.00 in0.0 mm 0.00 in0.0 mm
12:15 AM 56.3°F13.5°C 48.1°F8.9°C 74% 1.8 mph WNW2.9 kmh WNW 6.1 mph9.8 kmh 30.04 in1017.3 mb 0.00 in0.0 mm 0.00 in0.0 mm 0.00 in0.0 mm
12:30 AM 56.5°F13.6°C 48.3°F9.1°C 74% 4.1 mph NW6.6 kmh NW 11.8 mph19.0 kmh 30.07 in1018.3 mb 0.00 in0.0 mm 0.00 in0.0 mm 0.00 in0.0 mm
12:45 AM 56.3°F13.5°C 48.1°F8.9°C 74% 3.9 mph NW6.3 kmh NW 12.5 mph20.1 kmh 30.07 in1018.3 mb 0.00 in0.0 mm 0.00 in0.0 mm 0.00 in0.0 mm
01:00 AM 56.3°F13.5°C 48.5°F9.2°C 75% 3.9 mph WNW6.3 kmh WNW 9.3 mph15.0 kmh 30.07 in1018.3 mb 0.00 in0.0 mm 0.00 in0.0 mm 0.00 in0.0 mm
01:15 AM 56.5°F13.6°C 49.0°F9.4°C 76% 5.2 mph WNW8.4 kmh WNW 14.0 mph22.5 kmh 30.07 in1018.3 mb 0.00 in0.0 mm 0.00 in0.0 mm 0.00 in0.0 mm
01:30 AM 56.5°F13.6°C 49.0°F9.4°C 76% 2.2 mph W3.5 kmh W 8.6 mph13.8 kmh 30.07 in1018.3 mb 0.00 in0.0 mm 0.00 in0.0 mm 0.00 in0.0 mm
01:45 AM 56.1°F13.4°C 48.7°F9.3°C 76% 4.0 mph WNW6.4 kmh WNW 7.9 mph12.7 kmh 30.07 in1018.3 mb 0.00 in0.0 mm 0.00 in0.0 mm 0.00 in0.0 mm
02:00 AM 55.9°F13.3°C 48.5°F9.2°C 76% 2.6 mph W4.2 kmh W 5.7 mph9.2 kmh 30.07 in1018.3 mb 0.00 in0.0 mm 0.00 in0.0 mm 0.00 in0.0 mm
02:15 AM 55.6°F13.1°C 48.5°F9.2°C 77% 3.1 mph W5.0 kmh W 9.3 mph15.0 kmh 30.07 in1018.3 mb 0.00 in0.0 mm 0.00 in0.0 mm 0.00 in0.0 mm
02:30 AM 55.8°F13.2°C 49.0°F9.4°C 78% 2.7 mph W4.3 kmh W 6.1 mph9.8 kmh 30.07 in1018.3 mb 0.00 in0.0 mm 0.00 in0.0 mm 0.00 in0.0 mm
02:45 AM 55.4°F13.0°C 48.7°F9.3°C 78% 1.5 mph W2.4 kmh W 4.7 mph7.6 kmh 30.07 in1018.3 mb 0.00 in0.0 mm 0.00 in0.0 mm 0.00 in0.0 mm
03:00 AM 55.4°F13.0°C 49.0°F9.4°C 79% 3.2 mph W5.1 kmh W 6.1 mph9.8 kmh 30.07 in1018.3 mb 0.00 in0.0 mm 0.00 in0.0 mm 0.00 in0.0 mm
03:15 AM 55.2°F12.9°C 48.8°F9.3°C 79% 3.1 mph WNW5.0 kmh WNW 8.6 mph13.8 kmh 30.07 in1018.3 mb 0.00 in0.0 mm 0.00 in0.0 mm 0.00 in0.0 mm
03:30 AM 55.0°F12.8°C 48.6°F9.2°C 79% 4.8 mph W7.7 kmh W 6.1 mph9.8 kmh 30.07 in1018.3 mb 0.00 in0.0 mm 0.00 in0.0 mm 0.00 in0.0 mm
03:45 AM 55.0°F12.8°C 49.0°F9.4°C 80% 4.5 mph W7.2 kmh W 8.9 mph14.3 kmh 30.07 in1018.3 mb 0.00 in0.0 mm 0.00 in0.0 mm 0.00 in0.0 mm
04:00 AM 55.0°F12.8°C 49.0°F9.4°C 80% 3.5 mph W5.6 kmh W 6.8 mph10.9 kmh 30.07 in1018.3 mb 0.00 in0.0 mm 0.00 in0.0 mm 0.00 in0.0 mm
04:15 AM 55.0°F12.8°C 49.0°F9.4°C 80% 4.1 mph W6.6 kmh W 6.8 mph10.9 kmh 30.07 in1018.3 mb 0.00 in0.0 mm 0.00 in0.0 mm 0.00 in0.0 mm
04:30 AM 54.9°F12.7°C 48.8°F9.3°C 80% 3.3 mph NW5.3 kmh NW 4.3 mph6.9 kmh 30.07 in1018.3 mb 0.00 in0.0 mm 0.00 in0.0 mm 0.00 in0.0 mm
04:45 AM 54.9°F12.7°C 48.8°F9.3°C 80% 2.8 mph W4.5 kmh W 7.2 mph11.6 kmh 30.09 in1019.0 mb 0.00 in0.0 mm 0.00 in0.0 mm 0.00 in0.0 mm
05:00 AM 55.2°F12.9°C 49.5°F9.7°C 81% 2.1 mph W3.4 kmh W 5.4 mph8.7 kmh 30.09 in1019.0 mb 0.00 in0.0 mm 0.00 in0.0 mm 0.00 in0.0 mm
05:15 AM 55.4°F13.0°C 49.3°F9.6°C 80% 1.2 mph W1.9 kmh W 6.1 mph9.8 kmh 30.09 in1019.0 mb 0.00 in0.0 mm 0.00 in0.0 mm 0.00 in0.0 mm
05:30 AM 55.2°F12.9°C 48.8°F9.3°C 79% 0.9 mph W1.4 kmh W 5.7 mph9.2 kmh 30.09 in1019.0 mb 0.00 in0.0 mm 0.00 in0.0 mm 0.00 in0.0 mm
05:45 AM 55.0°F12.8°C 48.6°F9.2°C 79% 0.7 mph W1.1 kmh W 3.6 mph5.8 kmh 30.07 in1018.3 mb 0.00 in0.0 mm 0.00 in0.0 mm 0.00 in0.0 mm
06:00 AM 55.0°F12.8°C 48.6°F9.2°C 79% 1.7 mph W2.7 kmh W 6.4 mph10.3 kmh 30.09 in1019.0 mb 0.00 in0.0 mm 0.00 in0.0 mm 0.00 in0.0 mm
06:15 AM 55.6°F13.1°C 49.2°F9.6°C 79% 1.0 mph W1.6 kmh W 6.1 mph9.8 kmh 30.09 in1019.0 mb 0.00 in0.0 mm 0.00 in0.0 mm 0.00 in0.0 mm
06:30 AM 55.9°F13.3°C 49.5°F9.7°C 79% 0.9 mph W1.4 kmh W 7.9 mph12.7 kmh 30.09 in1019.0 mb 0.00 in0.0 mm 0.00 in0.0 mm 0.00 in0.0 mm
06:45 AM 56.8°F13.8°C 50.1°F10.1°C 78% 0.9 mph W1.4 kmh W 5.0 mph8.0 kmh 30.09 in1019.0 mb 0.00 in0.0 mm 0.00 in0.0 mm 0.00 in0.0 mm
07:00 AM 57.7°F14.3°C 50.6°F10.3°C 77% 1.7 mph NW2.7 kmh NW 6.8 mph10.9 kmh 30.09 in1019.0 mb 0.00 in0.0 mm 0.00 in0.0 mm 0.00 in0.0 mm
07:15 AM 58.8°F14.9°C 50.5°F10.3°C 74% 2.0 mph NW3.2 kmh NW 7.9 mph12.7 kmh 30.12 in1020.0 mb 0.00 in0.0 mm 0.00 in0.0 mm 0.00 in0.0 mm
07:30 AM 60.1°F15.6°C 50.6°F10.3°C 71% 3.4 mph NW5.5 kmh NW 10.0 mph16.1 kmh 30.12 in1020.0 mb 0.00 in0.0 mm 0.00 in0.0 mm 0.00 in0.0 mm
07:45 AM 60.1°F15.6°C 49.5°F9.7°C 68% 3.8 mph NW6.1 kmh NW 12.5 mph20.1 kmh 30.12 in1020.0 mb 0.00 in0.0 mm 0.00 in0.0 mm 0.00 in0.0 mm
08:00 AM 61.0°F16.1°C 49.5°F9.7°C 66% 3.3 mph NNW5.3 kmh NNW 8.9 mph14.3 kmh 30.15 in1021.0 mb 0.00 in0.0 mm 0.00 in0.0 mm 0.00 in0.0 mm
08:15 AM 61.0°F16.1°C 49.5°F9.7°C 66% 4.1 mph WNW6.6 kmh WNW 10.0 mph16.1 kmh 30.15 in1021.0 mb 0.00 in0.0 mm 0.00 in0.0 mm 0.00 in0.0 mm
08:30 AM 61.9°F16.6°C 50.4°F10.2°C 66% 2.8 mph WNW4.5 kmh WNW 9.7 mph15.6 kmh 30.18 in1022.0 mb 0.00 in0.0 mm 0.00 in0.0 mm 0.00 in0.0 mm
08:45 AM 63.0°F17.2°C 50.6°F10.3°C 64% 3.7 mph WNW6.0 kmh WNW 10.4 mph16.7 kmh 30.12 in1020.0 mb 0.00 in0.0 mm 0.00 in0.0 mm 0.00 in0.0 mm
09:00 AM 63.5°F17.5°C 51.5°F10.8°C 65% 3.2 mph WNW5.1 kmh WNW 9.3 mph15.0 kmh 30.15 in1021.0 mb 0.00 in0.0 mm 0.00 in0.0 mm 0.00 in0.0 mm
09:15 AM 64.6°F18.1°C 51.7°F10.9°C 63% 3.5 mph NW5.6 kmh NW 8.6 mph13.8 kmh 30.15 in1021.0 mb 0.00 in0.0 mm 0.00 in0.0 mm 0.00 in0.0 mm
09:30 AM 64.8°F18.2°C 51.9°F11.1°C 63% 3.5 mph W5.6 kmh W 11.1 mph17.9 kmh 30.12 in1020.0 mb 0.00 in0.0 mm 0.00 in0.0 mm 0.00 in0.0 mm
09:45 AM 64.2°F17.9°C 51.4°F10.8°C 63% 3.8 mph W6.1 kmh W 14.0 mph22.5 kmh 30.15 in1021.0 mb 0.00 in0.0 mm 0.00 in0.0 mm 0.00 in0.0 mm
10:00 AM 64.8°F18.2°C 51.4°F10.8°C 62% 4.4 mph WNW7.1 kmh WNW 10.0 mph16.1 kmh 30.15 in1021.0 mb 0.00 in0.0 mm 0.00 in0.0 mm 0.00 in0.0 mm
10:15 AM 65.7°F18.7°C 53.1°F11.7°C 64% 4.1 mph WNW6.6 kmh WNW 10.4 mph16.7 kmh 30.15 in1021.0 mb 0.00 in0.0 mm 0.00 in0.0 mm 0.00 in0.0 mm
10:30 AM 65.7°F18.7°C 51.8°F11.0°C 61% 3.6 mph NW5.8 kmh NW 10.4 mph16.7 kmh 30.18 in1022.0 mb 0.00 in0.0 mm 0.00 in0.0 mm 0.00 in0.0 mm
10:45 AM 64.9°F18.3°C 50.7°F10.4°C 60% 4.3 mph W6.9 kmh W 12.2 mph19.6 kmh 30.18 in1022.0 mb 0.00 in0.0 mm 0.00 in0.0 mm 0.00 in0.0 mm
11:00 AM 65.1°F18.4°C 51.3°F10.7°C 61% 3.9 mph WNW6.3 kmh WNW 15.7 mph25.3 kmh 30.18 in1022.0 mb 0.00 in0.0 mm 0.00 in0.0 mm 0.00 in0.0 mm
11:15 AM 65.1°F18.4°C 50.9°F10.5°C 60% 3.3 mph W5.3 kmh W 14.3 mph23.0 kmh 30.18 in1022.0 mb 0.00 in0.0 mm 0.00 in0.0 mm 0.00 in0.0 mm
11:30 AM 65.3°F18.5°C 50.6°F10.3°C 59% 4.1 mph WNW6.6 kmh WNW 12.9 mph20.8 kmh 30.18 in1022.0 mb 0.00 in0.0 mm 0.00 in0.0 mm 0.00 in0.0 mm
11:45 AM 65.3°F18.5°C 50.6°F10.3°C 59% 3.9 mph W6.3 kmh W 12.5 mph20.1 kmh 30.18 in1022.0 mb 0.00 in0.0 mm 0.00 in0.0 mm 0.00 in0.0 mm
12:00 PM 66.2°F19.0°C 51.9°F11.1°C 60% 4.2 mph W6.8 kmh W 12.9 mph20.8 kmh 30.18 in1022.0 mb 0.00 in0.0 mm 0.00 in0.0 mm 0.00 in0.0 mm
12:15 PM 66.0°F18.9°C 51.7°F10.9°C 60% 4.6 mph WNW7.4 kmh WNW 12.5 mph20.1 kmh 30.18 in1022.0 mb 0.00 in0.0 mm 0.00 in0.0 mm 0.00 in0.0 mm
12:30 PM 65.8°F18.8°C 51.6°F10.9°C 60% 4.1 mph W6.6 kmh W 10.4 mph16.7 kmh 30.18 in1022.0 mb 0.00 in0.0 mm 0.00 in0.0 mm 0.00 in0.0 mm
12:45 PM 65.1°F18.4°C 50.9°F10.5°C 60% 2.9 mph WNW4.7 kmh WNW 11.8 mph19.0 kmh 30.18 in1022.0 mb 0.00 in0.0 mm 0.00 in0.0 mm 0.00 in0.0 mm
01:00 PM 65.5°F18.6°C 51.2°F10.7°C 60% 4.7 mph WNW7.6 kmh WNW 16.5 mph26.6 kmh 30.18 in1022.0 mb 0.00 in0.0 mm 0.00 in0.0 mm 0.00 in0.0 mm
01:15 PM 65.1°F18.4°C 50.9°F10.5°C 60% 3.1 mph NW5.0 kmh NW 10.0 mph16.1 kmh 30.18 in1022.0 mb 0.00 in0.0 mm 0.00 in0.0 mm 0.00 in0.0 mm
01:30 PM 65.5°F18.6°C 51.2°F10.7°C 60% 4.8 mph W7.7 kmh W 15.7 mph25.3 kmh 30.18 in1022.0 mb 0.00 in0.0 mm 0.00 in0.0 mm 0.00 in0.0 mm
01:45 PM 65.5°F18.6°C 50.3°F10.2°C 58% 3.7 mph W6.0 kmh W 10.0 mph16.1 kmh 30.18 in1022.0 mb 0.00 in0.0 mm 0.00 in0.0 mm 0.00 in0.0 mm
02:00 PM 65.8°F18.8°C 50.2°F10.1°C 57% 4.3 mph WSW6.9 kmh WSW 16.5 mph26.6 kmh 30.18 in1022.0 mb 0.00 in0.0 mm 0.00 in0.0 mm 0.00 in0.0 mm
02:15 PM 65.8°F18.8°C 50.6°F10.3°C 58% 4.2 mph W6.8 kmh W 12.5 mph20.1 kmh 30.18 in1022.0 mb 0.00 in0.0 mm 0.00 in0.0 mm 0.00 in0.0 mm
02:30 PM 65.7°F18.7°C 50.0°F10.0°C 57% 4.7 mph WNW7.6 kmh WNW 12.2 mph19.6 kmh 30.18 in1022.0 mb 0.00 in0.0 mm 0.00 in0.0 mm 0.00 in0.0 mm
02:45 PM 65.7°F18.7°C 50.0°F10.0°C 57% 3.5 mph WNW5.6 kmh WNW 9.7 mph15.6 kmh 30.18 in1022.0 mb 0.00 in0.0 mm 0.00 in0.0 mm 0.00 in0.0 mm
03:00 PM 65.8°F18.8°C 50.6°F10.3°C 58% 4.4 mph W7.1 kmh W 10.0 mph16.1 kmh 30.21 in1023.0 mb 0.00 in0.0 mm 0.00 in0.0 mm 0.00 in0.0 mm
03:15 PM 65.8°F18.8°C 50.2°F10.1°C 57% 3.4 mph WNW5.5 kmh WNW 8.9 mph14.3 kmh 30.21 in1023.0 mb 0.00 in0.0 mm 0.00 in0.0 mm 0.00 in0.0 mm
03:30 PM 65.8°F18.8°C 50.6°F10.3°C 58% 2.7 mph WSW4.3 kmh WSW 9.3 mph15.0 kmh 30.21 in1023.0 mb 0.00 in0.0 mm 0.00 in0.0 mm 0.00 in0.0 mm
03:45 PM 65.8°F18.8°C 50.2°F10.1°C 57% 1.9 mph WSW3.1 kmh WSW 7.5 mph12.1 kmh 30.21 in1023.0 mb 0.00 in0.0 mm 0.00 in0.0 mm 0.00 in0.0 mm
04:00 PM 66.0°F18.9°C 50.8°F10.4°C 58% 3.7 mph WSW6.0 kmh WSW 9.3 mph15.0 kmh 30.18 in1022.0 mb 0.00 in0.0 mm 0.00 in0.0 mm 0.00 in0.0 mm
04:15 PM 65.8°F18.8°C 50.6°F10.3°C 58% 2.9 mph WSW4.7 kmh WSW 9.3 mph15.0 kmh 30.18 in1022.0 mb 0.00 in0.0 mm 0.00 in0.0 mm 0.00 in0.0 mm
04:30 PM 65.5°F18.6°C 50.3°F10.2°C 58% 3.6 mph SW5.8 kmh SW 9.3 mph15.0 kmh 30.18 in1022.0 mb 0.00 in0.0 mm 0.00 in0.0 mm 0.00 in0.0 mm
04:45 PM 64.8°F18.2°C 49.2°F9.6°C 57% 2.2 mph W3.5 kmh W 8.6 mph13.8 kmh 30.18 in1022.0 mb 0.00 in0.0 mm 0.00 in0.0 mm 0.00 in0.0 mm
05:00 PM 64.4°F18.0°C 48.8°F9.3°C 57% 2.4 mph W3.9 kmh W 7.5 mph12.1 kmh 30.18 in1022.0 mb 0.00 in0.0 mm 0.00 in0.0 mm 0.00 in0.0 mm
05:15 PM 63.7°F17.6°C 48.2°F9.0°C 57% 1.4 mph WSW2.3 kmh WSW 4.7 mph7.6 kmh 30.18 in1022.0 mb 0.00 in0.0 mm 0.00 in0.0 mm 0.00 in0.0 mm
05:30 PM 63.1°F17.3°C 48.1°F8.9°C 58% 0.8 mph S1.3 kmh S 6.4 mph10.3 kmh 30.18 in1022.0 mb 0.00 in0.0 mm 0.00 in0.0 mm 0.00 in0.0 mm
05:45 PM 62.8°F17.1°C 48.2°F9.0°C 59% 0.4 mph SSW0.6 kmh SSW 5.0 mph8.0 kmh 30.18 in1022.0 mb 0.00 in0.0 mm 0.00 in0.0 mm 0.00 in0.0 mm
06:00 PM 62.4°F16.9°C 48.3°F9.1°C 60% 0.1 mph WSW0.2 kmh WSW 2.5 mph4.0 kmh 30.18 in1022.0 mb 0.00 in0.0 mm 0.00 in0.0 mm 0.00 in0.0 mm
06:15 PM 62.1°F16.7°C 48.4°F9.1°C 61% Calm Calm -- 30.18 in1022.0 mb 0.00 in0.0 mm 0.00 in0.0 mm 0.00 in0.0 mm
06:30 PM 61.3°F16.3°C 48.6°F9.2°C 63% Calm Calm -- 30.18 in1022.0 mb 0.00 in0.0 mm 0.00 in0.0 mm 0.00 in0.0 mm
06:45 PM 60.6°F15.9°C 48.8°F9.3°C 65% Calm Calm -- 30.18 in1022.0 mb 0.00 in0.0 mm 0.00 in0.0 mm 0.00 in0.0 mm
07:00 PM 59.7°F15.4°C 48.7°F9.3°C 67% Calm Calm -- 30.18 in1022.0 mb 0.00 in0.0 mm 0.00 in0.0 mm 0.00 in0.0 mm
07:15 PM 58.5°F14.7°C 48.3°F9.1°C 69% Calm Calm -- 30.18 in1022.0 mb 0.00 in0.0 mm 0.00 in0.0 mm 0.00 in0.0 mm
07:30 PM 57.4°F14.1°C 46.9°F8.3°C 68% Calm Calm -- 30.18 in1022.0 mb 0.00 in0.0 mm 0.00 in0.0 mm 0.00 in0.0 mm
07:45 PM 56.3°F13.5°C 46.3°F7.9°C 69% Calm Calm -- 30.18 in1022.0 mb 0.00 in0.0 mm 0.00 in0.0 mm 0.00 in0.0 mm
08:00 PM 55.4°F13.0°C 45.4°F7.4°C 69% Calm Calm -- 30.18 in1022.0 mb 0.00 in0.0 mm 0.00 in0.0 mm 0.00 in0.0 mm
08:15 PM 54.9°F12.7°C 45.3°F7.4°C 70% Calm Calm -- 30.18 in1022.0 mb 0.00 in0.0 mm 0.00 in0.0 mm 0.00 in0.0 mm
08:30 PM 54.1°F12.3°C 44.9°F7.2°C 71% Calm Calm -- 30.18 in1022.0 mb 0.00 in0.0 mm 0.00 in0.0 mm 0.00 in0.0 mm
08:45 PM 53.4°F11.9°C 44.6°F7.0°C 72% Calm Calm -- 30.18 in1022.0 mb 0.00 in0.0 mm 0.00 in0.0 mm 0.00 in0.0 mm
09:00 PM 53.1°F11.7°C 44.6°F7.0°C 73% Calm Calm -- 30.18 in1022.0 mb 0.00 in0.0 mm 0.00 in0.0 mm 0.00 in0.0 mm
09:15 PM 52.5°F11.4°C 44.8°F7.1°C 75% 0.2 mph ESE0.3 kmh ESE 4.3 mph6.9 kmh 30.15 in1021.0 mb 0.00 in0.0 mm 0.00 in0.0 mm 0.00 in0.0 mm
09:30 PM 52.3°F11.3°C 45.3°F7.4°C 77% 3.1 mph E5.0 kmh E 7.2 mph11.6 kmh 30.18 in1022.0 mb 0.00 in0.0 mm 0.00 in0.0 mm 0.00 in0.0 mm
09:45 PM 52.2°F11.2°C 45.5°F7.5°C 78% 1.8 mph E2.9 kmh E 5.7 mph9.2 kmh 30.18 in1022.0 mb 0.00 in0.0 mm 0.00 in0.0 mm 0.00 in0.0 mm
10:00 PM 51.6°F10.9°C 45.0°F7.2°C 78% Calm Calm -- 30.18 in1022.0 mb 0.00 in0.0 mm 0.00 in0.0 mm 0.00 in0.0 mm
10:15 PM 51.3°F10.7°C 45.0°F7.2°C 79% 2.0 mph E3.2 kmh E 6.4 mph10.3 kmh 30.18 in1022.0 mb 0.00 in0.0 mm 0.00 in0.0 mm 0.00 in0.0 mm
10:30 PM 51.3°F10.7°C 45.3°F7.4°C 80% 5.5 mph ESE8.9 kmh ESE 8.9 mph14.3 kmh 30.15 in1021.0 mb 0.00 in0.0 mm 0.00 in0.0 mm 0.00 in0.0 mm
10:45 PM 51.1°F10.6°C 45.5°F7.5°C 81% 6.0 mph ESE9.7 kmh ESE 10.0 mph16.1 kmh 30.18 in1022.0 mb 0.00 in0.0 mm 0.00 in0.0 mm 0.00 in0.0 mm
11:00 PM 50.9°F10.5°C 45.3°F7.4°C 81% 6.3 mph ESE10.1 kmh ESE 10.0 mph16.1 kmh 30.15 in1021.0 mb 0.00 in0.0 mm 0.00 in0.0 mm 0.00 in0.0 mm
11:15 PM 50.7°F10.4°C 45.1°F7.3°C 81% 5.4 mph ESE8.7 kmh ESE 9.3 mph15.0 kmh 30.15 in1021.0 mb 0.00 in0.0 mm 0.00 in0.0 mm 0.00 in0.0 mm
11:30 PM 50.4°F10.2°C 45.1°F7.3°C 82% 5.4 mph SE8.7 kmh SE 8.9 mph14.3 kmh 30.18 in1022.0 mb 0.00 in0.0 mm 0.00 in0.0 mm 0.00 in0.0 mm
11:45 PM 50.0°F10.0°C 44.7°F7.1°C 82% 6.2 mph ESE10.0 kmh ESE 9.7 mph15.6 kmh 30.18 in1022.0 mb 0.00 in0.0 mm 0.00 in0.0 mm 0.00 in0.0 mm